Time;durP1;ratioP1;P1;durP2;ratioP2;P2;SDS_P1;SDS_P2;PMS_P1;PMS_P2;Temp;Humidity;BMP_temperature;BMP_pressure;BME280_temperature;BME280_humidity;BME280_pressure;Samples;Min_cycle;Max_cycle;Signal;HPM_P1;HPM_P2
2021/09/12 00:01:52;;;;;;;19.83;15.07;;;15.20;99.90;;;;;;4932032;29;20418;-95
2021/09/12 00:04:20;;;;;;;17.13;14.93;;;15.10;99.90;;;;;;4932401;28;20407;-94
2021/09/12 00:06:48;;;;;;;18.83;14.73;;;15.00;99.90;;;;;;4932351;28;20502;-94
2021/09/12 00:09:15;;;;;;;16.70;13.90;;;15.00;99.90;;;;;;4930416;29;20430;-94
2021/09/12 00:11:43;;;;;;;16.08;13.13;;;15.00;99.90;;;;;;4930066;29;20432;-94
2021/09/12 00:14:10;;;;;;;19.42;13.10;;;15.00;99.90;;;;;;4931698;29;20427;-94
2021/09/12 00:16:51;;;;;;;16.25;12.85;;;15.10;99.90;;;;;;4931926;29;20427;-95
2021/09/12 00:19:18;;;;;;;17.05;13.00;;;15.20;99.90;;;;;;4931585;29;20431;-94
2021/09/12 00:21:45;;;;;;;18.73;12.80;;;15.20;99.90;;;;;;4930645;29;20446;-94
2021/09/12 00:24:12;;;;;;;15.00;13.40;;;15.20;99.90;;;;;;4931482;29;20436;-93
2021/09/12 00:26:53;;;;;;;16.97;13.13;;;15.20;99.90;;;;;;4932482;29;20426;-95
2021/09/12 00:29:21;;;;;;;15.38;12.75;;;15.20;99.90;;;;;;4931714;29;20468;-95
2021/09/12 00:31:55;;;;;;;17.38;12.82;;;15.30;99.90;;;;;;4946536;28;20415;-95
2021/09/12 00:34:22;;;;;;;15.35;11.85;;;15.40;99.90;;;;;;4929509;29;20415;-93
2021/09/12 00:36:49;;;;;;;19.67;11.75;;;15.50;99.90;;;;;;4931787;28;20541;-94
2021/09/12 00:39:17;;;;;;;12.55;11.15;;;15.70;99.90;;;;;;4938441;23;20407;-95
2021/09/12 00:41:45;;;;;;;14.10;10.98;;;15.70;99.90;;;;;;4932291;29;20744;-94
2021/09/12 00:44:15;;;;;;;12.27;10.43;;;15.70;99.90;;;;;;4931316;29;20411;-93
2021/09/12 00:46:54;;;;;;;13.90;10.00;;;15.80;99.90;;;;;;4943422;29;20442;-94
2021/09/12 00:49:23;;;;;;;13.80;10.33;;;15.80;99.90;;;;;;4929751;29;20407;-95
2021/09/12 00:51:51;;;;;;;15.85;10.50;;;15.80;99.90;;;;;;4929201;29;20586;-94
2021/09/12 00:54:19;;;;;;;11.82;10.25;;;15.70;99.90;;;;;;4927899;29;20520;-94
2021/09/12 00:56:48;;;;;;;12.60;10.50;;;15.60;99.90;;;;;;4929641;29;20450;-94
2021/09/12 00:59:17;;;;;;;13.15;10.63;;;15.50;99.90;;;;;;4935795;29;20419;-94
2021/09/12 01:01:45;;;;;;;12.45;10.55;;;15.40;99.90;;;;;;4943563;29;20447;-94
2021/09/12 01:04:35;;;;;;;11.45;9.80;;;15.30;99.90;;;;;;4907055;29;20946;-95
2021/09/12 01:07:04;;;;;;;15.45;10.68;;;15.20;99.90;;;;;;4905371;29;20502;-94
2021/09/12 01:09:37;;;;;;;14.55;10.90;;;15.20;99.90;;;;;;4905415;29;20419;-94
2021/09/12 01:12:14;;;;;;;14.45;11.43;;;15.20;99.90;;;;;;4907569;29;20442;-94
2021/09/12 01:14:42;;;;;;;13.32;10.93;;;15.20;99.90;;;;;;4907390;29;20903;-94
2021/09/12 01:17:09;;;;;;;13.45;10.80;;;15.10;99.90;;;;;;4904356;29;20431;-94
2021/09/12 01:19:36;;;;;;;14.85;10.82;;;15.00;99.90;;;;;;4905797;29;20521;-94
2021/09/12 01:22:06;;;;;;;15.23;10.63;;;15.00;99.90;;;;;;4912764;29;20431;-95
2021/09/12 01:24:36;;;;;;;13.77;10.60;;;15.00;99.90;;;;;;4927038;29;20418;-95
2021/09/12 01:27:04;;;;;;;12.63;10.63;;;15.00;99.90;;;;;;4928848;29;20446;-95
2021/09/12 01:29:31;;;;;;;11.35;10.00;;;15.00;99.90;;;;;;4928266;29;20431;-95
2021/09/12 01:32:00;;;;;;;13.75;11.02;;;15.00;99.90;;;;;;4926779;29;20519;-94
2021/09/12 01:34:27;;;;;;;15.55;11.35;;;14.90;99.90;;;;;;4927719;29;20442;-95
2021/09/12 01:36:54;;;;;;;13.82;11.15;;;14.90;99.90;;;;;;4928025;29;20464;-95
2021/09/12 01:39:21;;;;;;;14.55;11.13;;;15.00;99.90;;;;;;4928840;29;20439;-93
2021/09/12 01:41:48;;;;;;;13.98;11.55;;;15.10;99.90;;;;;;4928702;29;20423;-95
2021/09/12 01:44:24;;;;;;;16.48;11.93;;;15.00;99.90;;;;;;4926008;29;20990;-94
2021/09/12 01:46:55;;;;;;;16.70;12.43;;;14.90;99.90;;;;;;4926114;29;20427;-95
2021/09/12 01:49:23;;;;;;;18.45;13.80;;;14.80;99.90;;;;;;4926877;29;20487;-95
2021/09/12 01:51:54;;;;;;;20.42;14.38;;;14.70;99.90;;;;;;4925895;29;20431;-94
2021/09/12 01:54:21;;;;;;;17.37;13.63;;;14.60;99.90;;;;;;4929824;29;20435;-94
2021/09/12 01:56:49;;;;;;;21.63;15.67;;;14.60;99.90;;;;;;4930449;29;20446;-94
2021/09/12 01:59:16;;;;;;;19.87;16.30;;;14.60;99.90;;;;;;4929298;29;20435;-94
2021/09/12 02:01:48;;;;;;;20.35;16.38;;;14.50;99.90;;;;;;4944703;29;20428;-94
2021/09/12 02:04:16;;;;;;;21.38;16.17;;;14.50;99.90;;;;;;4931980;29;21003;-95
2021/09/12 02:06:43;;;;;;;21.25;16.23;;;14.50;99.90;;;;;;4927321;29;20420;-93
2021/09/12 02:09:10;;;;;;;19.63;16.58;;;14.50;99.90;;;;;;4927836;29;20439;-93
2021/09/12 02:11:37;;;;;;;21.85;16.88;;;14.50;99.90;;;;;;4929745;29;20518;-94
2021/09/12 02:14:04;;;;;;;21.38;16.90;;;14.60;99.90;;;;;;4930572;29;20427;-94
2021/09/12 02:16:31;;;;;;;21.58;16.65;;;14.60;99.90;;;;;;4928583;29;20431;-93
2021/09/12 02:18:58;;;;;;;23.10;18.67;;;14.50;99.90;;;;;;4927989;29;20415;-94
2021/09/12 02:21:26;;;;;;;25.23;21.20;;;14.50;99.90;;;;;;4928671;29;20407;-94
2021/09/12 02:23:53;;;;;;;23.67;19.67;;;14.50;99.90;;;;;;4928775;29;20431;-94
2021/09/12 02:26:20;;;;;;;22.47;18.30;;;14.50;99.90;;;;;;4929024;29;20438;-94
2021/09/12 02:28:47;;;;;;;21.63;17.35;;;14.30;99.90;;;;;;4927964;29;20440;-96
2021/09/12 02:31:14;;;;;;;27.95;21.90;;;14.40;99.90;;;;;;4932084;29;20741;-93
2021/09/12 02:33:43;;;;;;;29.02;20.35;;;14.50;99.90;;;;;;4930540;29;20442;-94
2021/09/12 02:36:10;;;;;;;29.05;21.35;;;14.40;99.90;;;;;;4927965;29;20779;-94
2021/09/12 02:38:37;;;;;;;28.63;21.77;;;14.40;99.90;;;;;;4928559;29;20504;-94
2021/09/12 02:41:04;;;;;;;24.75;20.40;;;14.40;99.90;;;;;;4913967;29;20433;-95
2021/09/12 02:43:32;;;;;;;31.00;22.92;;;14.50;99.90;;;;;;4923822;29;20529;-95
2021/09/12 02:45:59;;;;;;;28.77;21.80;;;14.30;99.90;;;;;;4912765;29;20430;-95
2021/09/12 02:48:26;;;;;;;30.42;22.80;;;14.30;99.90;;;;;;4894847;29;20512;-95
2021/09/12 02:50:53;;;;;;;31.07;23.53;;;14.20;99.90;;;;;;4911300;29;20413;-95
2021/09/12 02:53:20;;;;;;;28.97;21.73;;;14.20;99.90;;;;;;4910011;29;20535;-95
2021/09/12 02:55:48;;;;;;;32.40;23.98;;;14.20;99.90;;;;;;4909809;29;20433;-95
2021/09/12 02:58:17;;;;;;;35.97;25.60;;;14.10;99.90;;;;;;4909516;29;20449;-94
2021/09/12 03:00:44;;;;;;;30.63;22.73;;;14.30;99.90;;;;;;4911597;29;20416;-94
2021/09/12 03:03:13;;;;;;;29.58;22.85;;;14.30;99.90;;;;;;4910361;29;20448;-96
2021/09/12 03:05:43;;;;;;;36.75;24.02;;;14.20;99.90;;;;;;4910564;29;20743;-94
2021/09/12 03:08:10;;;;;;;34.47;24.50;;;14.10;99.90;;;;;;4911158;29;21011;-95
2021/09/12 03:10:38;;;;;;;35.03;24.05;;;14.00;99.90;;;;;;4908785;29;20504;-94
2021/09/12 03:13:05;;;;;;;33.42;25.00;;;14.00;99.90;;;;;;4908795;29;20436;-95
2021/09/12 03:15:32;;;;;;;32.60;23.53;;;14.10;99.90;;;;;;4909874;29;20429;-94
2021/09/12 03:18:02;;;;;;;27.23;21.77;;;14.10;99.90;;;;;;4909642;29;20437;-95
2021/09/12 03:20:32;;;;;;;34.63;25.48;;;14.00;99.90;;;;;;4909065;29;20441;-95
2021/09/12 03:23:00;;;;;;;36.00;26.08;;;14.00;99.90;;;;;;4905614;29;20437;-95
2021/09/12 03:25:31;;;;;;;40.43;28.27;;;13.90;99.90;;;;;;4910827;29;20519;-95
2021/09/12 03:27:58;;;;;;;38.53;28.33;;;13.80;99.90;;;;;;4907821;29;20476;-94
2021/09/12 03:30:27;;;;;;;38.73;29.33;;;13.90;99.90;;;;;;4905638;29;20505;-95
2021/09/12 03:32:54;;;;;;;36.33;26.53;;;13.90;99.90;;;;;;4905653;29;20419;-95
2021/09/12 03:35:22;;;;;;;37.20;27.08;;;13.90;99.90;;;;;;4908692;29;20444;-94
2021/09/12 03:37:50;;;;;;;39.33;28.20;;;13.90;99.90;;;;;;4909796;29;20429;-95
2021/09/12 03:40:17;;;;;;;36.75;27.23;;;13.90;99.90;;;;;;4906641;29;20507;-95
2021/09/12 03:42:46;;;;;;;29.02;22.95;;;14.00;99.90;;;;;;4907271;29;20439;-94
2021/09/12 03:45:14;;;;;;;29.23;23.10;;;13.90;99.90;;;;;;4908050;29;20433;-93
2021/09/12 03:47:44;;;;;;;31.10;24.10;;;14.00;99.90;;;;;;4907496;29;20436;-96
2021/09/12 03:50:11;;;;;;;30.10;23.60;;;14.20;99.90;;;;;;4907596;29;20560;-96
2021/09/12 03:52:42;;;;;;;33.40;23.92;;;14.30;99.90;;;;;;4910624;29;20433;-95
2021/09/12 03:55:16;;;;;;;34.03;25.85;;;14.30;99.90;;;;;;4908989;29;20497;-94
2021/09/12 03:57:50;;;;;;;34.25;25.52;;;14.30;99.90;;;;;;4907229;29;20485;-95
2021/09/12 04:00:25;;;;;;;37.22;26.70;;;14.10;99.90;;;;;;4908883;29;20988;-95
2021/09/12 04:02:55;;;;;;;37.92;27.08;;;14.10;99.90;;;;;;4908634;29;20465;-95
2021/09/12 04:05:28;;;;;;;37.13;25.55;;;14.20;99.90;;;;;;4907144;29;20425;-94
2021/09/12 04:07:55;;;;;;;32.45;25.08;;;14.20;99.90;;;;;;4909587;29;20444;-95
2021/09/12 04:10:30;;;;;;;31.33;23.77;;;14.40;99.90;;;;;;4907070;29;20444;-94
2021/09/12 04:12:59;;;;;;;34.80;25.77;;;14.40;99.90;;;;;;4909029;29;20765;-94
2021/09/12 04:15:28;;;;;;;42.80;28.33;;;14.30;99.90;;;;;;4905632;29;20460;-96
2021/09/12 04:17:58;;;;;;;42.58;29.58;;;14.20;99.90;;;;;;4906954;29;20425;-94
2021/09/12 04:20:25;;;;;;;36.22;26.20;;;14.20;99.90;;;;;;4908366;29;20428;-95
2021/09/12 04:22:52;;;;;;;37.08;26.08;;;14.20;99.90;;;;;;4906333;29;20975;-95
2021/09/12 04:29:10;;;;;;;31.80;24.42;;;14.40;99.90;;;;;;4923440;29;21063;-95
2021/09/12 04:31:37;;;;;;;32.38;24.50;;;14.30;99.90;;;;;;4906961;29;20524;-95
2021/09/12 04:34:04;;;;;;;33.60;24.50;;;14.40;99.90;;;;;;4906702;29;20409;-95
2021/09/12 04:36:31;;;;;;;33.50;25.13;;;14.40;99.90;;;;;;4906971;29;20469;-95
2021/09/12 04:39:24;;;;;;;31.40;24.15;;;14.40;99.90;;;;;;4909531;29;20488;-95
2021/09/12 04:41:51;;;;;;;34.05;25.20;;;14.50;99.90;;;;;;4908091;29;20433;-95
2021/09/12 04:44:21;;;;;;;35.45;25.45;;;14.40;99.90;;;;;;4906057;29;20476;-96
2021/09/12 04:46:49;;;;;;;35.47;26.73;;;14.40;99.90;;;;;;4910636;29;20432;-94
2021/09/12 04:49:17;;;;;;;37.00;25.07;;;14.50;99.90;;;;;;4908531;29;20423;-93
2021/09/12 04:51:44;;;;;;;36.67;26.60;;;14.50;99.90;;;;;;4909113;29;20436;-95
2021/09/12 04:54:17;;;;;;;33.15;24.08;;;14.50;99.90;;;;;;4910984;29;20453;-96
2021/09/12 04:56:45;;;;;;;35.45;26.23;;;14.40;99.90;;;;;;4911233;29;20441;-94
2021/09/12 04:59:17;;;;;;;35.40;26.77;;;14.40;99.90;;;;;;4911192;29;20480;-95
2021/09/12 05:01:47;;;;;;;34.67;25.40;;;14.40;99.90;;;;;;4913142;29;20433;-95
2021/09/12 05:04:15;;;;;;;33.83;25.73;;;14.40;99.90;;;;;;4910329;29;20429;-95
2021/09/12 05:06:45;;;;;;;32.90;25.38;;;14.40;99.90;;;;;;4911077;29;20478;-95
2021/09/12 05:09:12;;;;;;;34.83;26.60;;;14.40;99.90;;;;;;4909091;29;20437;-94
2021/09/12 05:11:40;;;;;;;33.83;25.75;;;14.40;99.90;;;;;;4910955;29;20448;-94
2021/09/12 05:14:12;;;;;;;35.03;26.33;;;14.40;99.90;;;;;;4909980;29;20441;-96
2021/09/12 05:16:40;;;;;;;36.80;26.27;;;14.40;99.90;;;;;;4910272;29;20489;-95
2021/09/12 05:19:07;;;;;;;35.33;26.48;;;14.50;99.90;;;;;;4910777;29;20471;-94
2021/09/12 05:21:34;;;;;;;38.47;26.10;;;14.50;99.90;;;;;;4908791;29;20955;-94
2021/09/12 05:24:01;;;;;;;34.90;26.98;;;14.50;99.90;;;;;;4908756;29;20437;-94
2021/09/12 05:26:28;;;;;;;35.40;26.90;;;14.50;99.90;;;;;;4909718;29;20429;-93
2021/09/12 05:28:56;;;;;;;35.25;27.15;;;14.50;99.90;;;;;;4911633;29;20472;-93
2021/09/12 05:31:23;;;;;;;34.15;26.63;;;14.50;99.90;;;;;;4910407;29;20429;-93
2021/09/12 05:33:50;;;;;;;33.03;26.40;;;14.60;99.90;;;;;;4907452;29;20444;-93
2021/09/12 05:36:20;;;;;;;32.90;24.73;;;14.60;99.90;;;;;;4912996;29;20433;-93
2021/09/12 05:38:48;;;;;;;37.43;25.50;;;14.70;99.90;;;;;;4908398;29;20751;-93
2021/09/12 05:41:22;;;;;;;34.47;24.60;;;14.70;99.90;;;;;;4908749;29;20437;-94
2021/09/12 05:43:50;;;;;;;29.00;24.10;;;14.70;99.90;;;;;;4921964;29;20446;-95
2021/09/12 05:46:40;;;;;;;33.33;24.60;;;14.70;99.90;;;;;;4912824;29;20417;-91
2021/09/12 06:01:20;;;;;;;31.77;25.05;;;14.80;99.90;;;;;;4898724;29;20476;-91
2021/09/12 06:05:03;;;;;;;32.80;24.27;;;14.80;99.90;;;;;;4899762;29;20416;-93
2021/09/12 06:08:12;;;;;;;31.42;24.17;;;14.90;99.90;;;;;;4865288;29;20797;-92
2021/09/12 06:11:33;;;;;;;28.63;23.00;;;14.90;99.90;;;;;;4849465;29;20444;-91
2021/09/12 06:14:43;;;;;;;30.98;23.85;;;14.90;99.90;;;;;;4840418;29;20440;-91
2021/09/12 06:26:55;;;;;;;26.52;21.98;;;15.30;99.90;;;;;;4969871;29;20436;-94
2021/09/12 06:29:38;;;;;;;25.98;21.20;;;15.30;99.90;;;;;;4956831;29;20416;-96
2021/09/12 06:32:33;;;;;;;26.90;21.25;;;15.40;99.90;;;;;;4938447;29;20430;-95
2021/09/12 06:35:11;;;;;;;29.80;22.92;;;15.50;99.90;;;;;;4932964;29;20430;-92
2021/09/12 06:37:39;;;;;;;30.35;22.40;;;15.60;99.90;;;;;;4930209;29;20455;-96
2021/09/12 06:40:11;;;;;;;33.72;24.65;;;15.70;99.90;;;;;;4933821;29;20423;-96
2021/09/12 06:42:39;;;;;;;29.63;23.30;;;15.80;99.90;;;;;;4927922;29;20424;-96
2021/09/12 06:45:08;;;;;;;28.67;22.90;;;15.90;99.90;;;;;;4925553;29;20783;-96
2021/09/12 06:47:35;;;;;;;33.03;24.92;;;15.90;99.90;;;;;;4908994;29;20997;-95
2021/09/12 06:50:03;;;;;;;31.30;24.40;;;16.00;99.90;;;;;;4924826;29;20431;-96
2021/09/12 06:52:30;;;;;;;29.38;23.67;;;16.10;99.90;;;;;;4924795;29;20432;-96
2021/09/12 06:54:57;;;;;;;33.37;24.87;;;16.20;99.90;;;;;;4927236;29;20431;-96
2021/09/12 06:57:31;;;;;;;31.75;24.35;;;16.20;99.90;;;;;;4941077;29;20519;-96
2021/09/12 06:59:59;;;;;;;30.30;22.38;;;16.30;99.90;;;;;;4923456;29;20450;-96
2021/09/12 07:02:43;;;;;;;27.13;21.45;;;16.30;99.90;;;;;;4942683;23;20428;-95
2021/09/12 07:05:18;;;;;;;28.63;21.58;;;16.30;99.90;;;;;;4863378;29;20444;-94
2021/09/12 07:07:45;;;;;;;31.15;24.20;;;16.30;99.90;;;;;;4901698;29;20429;-94
2021/09/12 07:10:13;;;;;;;32.00;22.45;;;16.30;99.90;;;;;;4901686;29;20437;-95
2021/09/12 07:12:41;;;;;;;31.02;23.23;;;16.30;99.90;;;;;;4902131;29;20429;-95
2021/09/12 07:15:09;;;;;;;31.73;23.10;;;16.30;99.90;;;;;;4902315;29;20777;-96
2021/09/12 07:17:36;;;;;;;32.88;23.90;;;16.50;99.90;;;;;;4902413;29;20435;-95
2021/09/12 07:20:04;;;;;;;27.17;22.67;;;16.50;99.90;;;;;;4902730;29;20459;-96
2021/09/12 07:26:19;;;;;;;30.95;22.77;;;16.70;99.90;;;;;;5089705;23;20456;-95
2021/09/12 07:31:28;;;;;;;26.92;21.95;;;16.70;99.90;;;;;;4953808;23;20835;-96
2021/09/12 07:34:02;;;;;;;27.20;20.52;;;16.60;99.90;;;;;;4923837;29;20420;-96
2021/09/12 07:36:31;;;;;;;24.80;20.30;;;16.60;99.90;;;;;;4922873;29;20515;-96
2021/09/12 07:38:58;;;;;;;27.92;20.48;;;16.70;99.90;;;;;;4923234;29;20811;-95
2021/09/12 07:41:29;;;;;;;25.63;20.58;;;16.70;99.90;;;;;;4923067;29;20772;-95
2021/09/12 07:43:56;;;;;;;29.70;20.50;;;16.70;99.90;;;;;;4924525;29;20435;-96
2021/09/12 07:46:24;;;;;;;26.80;20.85;;;16.80;99.90;;;;;;4921421;29;20490;-95
2021/09/12 07:48:51;;;;;;;25.98;21.70;;;16.80;99.90;;;;;;4923698;29;20432;-95
2021/09/12 07:51:18;;;;;;;26.45;19.75;;;16.90;99.90;;;;;;4942652;29;20411;-96
2021/09/12 07:53:46;;;;;;;25.88;19.70;;;16.90;99.90;;;;;;4943649;29;21044;-96
2021/09/12 07:56:14;;;;;;;22.73;19.42;;;17.00;99.90;;;;;;4924122;29;20464;-95
2021/09/12 07:58:41;;;;;;;23.65;20.13;;;17.10;99.90;;;;;;4922885;29;20434;-96
2021/09/12 08:01:13;;;;;;;25.40;20.27;;;17.10;99.90;;;;;;4924742;29;20783;-96
2021/09/12 08:03:44;;;;;;;25.33;20.45;;;17.10;99.90;;;;;;4925384;29;20427;-95
2021/09/12 08:06:17;;;;;;;23.92;19.48;;;17.10;99.90;;;;;;4922944;29;20518;-94
2021/09/12 08:08:44;;;;;;;24.93;19.87;;;17.20;99.90;;;;;;4923936;29;20495;-96
2021/09/12 08:11:11;;;;;;;25.87;19.80;;;17.20;99.90;;;;;;4922211;29;20511;-95
2021/09/12 08:13:42;;;;;;;24.42;19.20;;;17.20;99.90;;;;;;4922650;29;20435;-96
2021/09/12 08:16:12;;;;;;;24.70;19.90;;;17.20;99.90;;;;;;4922612;29;20506;-94
2021/09/12 08:18:40;;;;;;;24.80;19.95;;;17.20;99.90;;;;;;4922235;29;20551;-96
2021/09/12 08:21:15;;;;;;;23.42;18.38;;;17.30;99.90;;;;;;4924921;29;20437;-95
2021/09/12 08:23:42;;;;;;;22.73;19.40;;;17.40;99.90;;;;;;4928278;29;20434;-96
2021/09/12 08:26:12;;;;;;;23.95;19.08;;;17.50;99.90;;;;;;4926835;29;20470;-96
2021/09/12 08:28:49;;;;;;;24.48;18.98;;;17.60;99.90;;;;;;4927925;29;20427;-96
2021/09/12 08:31:18;;;;;;;24.95;19.08;;;17.80;99.90;;;;;;4911638;29;20507;-96
2021/09/12 08:33:57;;;;;;;22.52;18.60;;;17.80;99.90;;;;;;4909726;29;20786;-96
2021/09/12 08:36:28;;;;;;;21.27;18.58;;;17.90;99.90;;;;;;4909599;29;20498;-96
2021/09/12 08:38:58;;;;;;;24.23;18.55;;;17.90;99.90;;;;;;4909513;29;20445;-95
2021/09/12 08:41:30;;;;;;;22.05;18.55;;;17.90;99.90;;;;;;4907059;29;20457;-96
2021/09/12 08:43:59;;;;;;;25.08;18.65;;;18.00;99.90;;;;;;4906240;29;20425;-95
2021/09/12 08:46:26;;;;;;;24.77;18.63;;;18.10;99.90;;;;;;4906216;29;20429;-96
2021/09/12 08:48:53;;;;;;;22.13;17.80;;;18.30;99.90;;;;;;4905996;29;20496;-96
2021/09/12 08:51:24;;;;;;;24.20;18.15;;;18.30;99.90;;;;;;4905382;29;20429;-96
2021/09/12 08:53:51;;;;;;;22.67;17.97;;;18.40;99.90;;;;;;4905739;29;20505;-95
2021/09/12 08:56:21;;;;;;;20.92;18.20;;;18.50;99.90;;;;;;4906648;29;20915;-95
2021/09/12 08:58:48;;;;;;;20.75;17.00;;;18.60;99.90;;;;;;4905483;29;20437;-95
2021/09/12 09:01:16;;;;;;;22.80;17.65;;;18.70;99.90;;;;;;4905856;29;20441;-96
2021/09/12 09:03:44;;;;;;;21.00;17.75;;;18.90;99.90;;;;;;4890586;29;20429;-95
2021/09/12 09:06:13;;;;;;;20.65;17.75;;;19.00;99.90;;;;;;4904862;29;20444;-94
2021/09/12 09:09:02;;;;;;;19.58;16.63;;;19.10;99.90;;;;;;4905401;29;20494;-95
2021/09/12 09:11:37;;;;;;;21.03;16.93;;;19.30;99.90;;;;;;4904862;29;20932;-95
2021/09/12 09:14:19;;;;;;;19.17;17.00;;;19.40;99.90;;;;;;4904674;29;20504;-96
2021/09/12 09:16:49;;;;;;;21.67;17.40;;;19.30;99.90;;;;;;4905462;29;20433;-94
2021/09/12 09:19:17;;;;;;;20.77;17.85;;;19.20;99.90;;;;;;4904811;29;20500;-95
2021/09/12 09:21:48;;;;;;;20.80;17.77;;;19.10;99.90;;;;;;4904226;29;20433;-95
2021/09/12 09:24:25;;;;;;;20.95;17.70;;;18.90;99.90;;;;;;4903706;29;20437;-95
2021/09/12 09:27:04;;;;;;;22.40;18.33;;;18.80;99.90;;;;;;4904077;29;20451;-95
2021/09/12 09:29:34;;;;;;;22.10;18.02;;;18.70;99.90;;;;;;4906571;29;20439;-96
2021/09/12 09:32:08;;;;;;;21.60;18.30;;;18.80;99.90;;;;;;4925569;29;20428;-95
2021/09/12 09:35:14;;;;;;;20.58;17.67;;;18.90;99.90;;;;;;4942329;29;20439;-95
2021/09/12 09:37:48;;;;;;;22.23;17.80;;;19.00;99.90;;;;;;4924733;29;20437;-96
2021/09/12 09:40:15;;;;;;;21.10;18.02;;;19.20;99.90;;;;;;4923324;29;20467;-96
2021/09/12 09:42:44;;;;;;;20.33;17.38;;;19.40;99.90;;;;;;4924799;29;20510;-95
2021/09/12 09:45:14;;;;;;;20.42;16.92;;;19.50;99.90;;;;;;4923725;29;20443;-96
2021/09/12 09:47:43;;;;;;;20.40;17.20;;;19.50;99.90;;;;;;4922506;29;20431;-95
2021/09/12 09:50:17;;;;;;;19.05;15.98;;;20.00;99.90;;;;;;4922574;29;20434;-95
2021/09/12 09:52:48;;;;;;;18.48;15.40;;;20.60;99.90;;;;;;4925418;29;20756;-96
2021/09/12 09:55:23;;;;;;;18.67;14.77;;;20.90;99.90;;;;;;4924732;29;20427;-96
2021/09/12 09:57:54;;;;;;;16.25;14.43;;;20.80;99.90;;;;;;4925077;29;20435;-95
2021/09/12 10:00:26;;;;;;;18.33;13.48;;;20.90;99.90;;;;;;4922916;29;20529;-96
2021/09/12 10:02:54;;;;;;;15.23;13.45;;;20.90;99.90;;;;;;4923996;29;20427;-95
2021/09/12 10:05:22;;;;;;;17.90;14.73;;;20.90;99.90;;;;;;4923727;29;20439;-87
2021/09/12 10:07:49;;;;;;;17.48;13.48;;;20.60;99.90;;;;;;4921933;29;20957;-92
2021/09/12 10:10:20;;;;;;;16.50;13.70;;;20.40;99.90;;;;;;4922461;29;20423;-92
2021/09/12 10:12:53;;;;;;;16.52;13.85;;;20.20;99.90;;;;;;4921923;29;20431;-88
2021/09/12 10:15:28;;;;;;;16.90;13.50;;;20.10;99.90;;;;;;4922572;29;20430;-93
2021/09/12 10:18:07;;;;;;;14.50;12.70;;;20.40;99.90;;;;;;4926962;29;20822;-96
2021/09/12 10:20:48;;;;;;;14.73;12.80;;;20.30;99.90;;;;;;4926535;29;20454;-95
2021/09/12 10:23:18;;;;;;;12.40;9.90;;;20.50;99.90;;;;;;4925286;29;20462;-96
2021/09/12 10:25:48;;;;;;;12.45;8.57;;;20.90;99.90;;;;;;4924115;29;20491;-96
2021/09/12 10:28:28;;;;;;;11.38;8.80;;;21.00;99.90;;;;;;4926533;29;20424;-93
2021/09/12 10:30:55;;;;;;;13.20;10.13;;;21.40;99.90;;;;;;4909445;29;20448;-94
2021/09/12 10:33:28;;;;;;;11.05;9.20;;;21.60;99.90;;;;;;4906753;29;20440;-92
2021/09/12 10:36:02;;;;;;;12.00;9.27;;;21.80;99.90;;;;;;4903703;29;20425;-93
2021/09/12 10:39:13;;;;;;;10.48;9.20;;;21.70;99.90;;;;;;4907501;29;20437;-94
2021/09/12 10:42:09;;;;;;;12.93;10.32;;;21.60;99.90;;;;;;4900054;29;20431;-95
2021/09/12 10:44:37;;;;;;;12.68;10.98;;;21.10;99.90;;;;;;4887372;29;20472;-94
2021/09/12 10:47:10;;;;;;;12.48;10.80;;;21.00;99.90;;;;;;4905611;29;20430;-94
2021/09/12 10:49:37;;;;;;;13.68;11.05;;;20.70;99.90;;;;;;4885258;29;20435;-94
2021/09/12 10:52:31;;;;;;;13.10;11.38;;;20.70;99.90;;;;;;5074301;23;20449;-95
2021/09/12 10:55:07;;;;;;;15.55;12.15;;;20.60;99.90;;;;;;4923613;29;20447;-93
2021/09/12 10:57:43;;;;;;;13.82;11.10;;;20.70;99.90;;;;;;4914552;29;20420;-96
2021/09/12 11:00:38;;;;;;;11.90;10.63;;;20.50;99.90;;;;;;5052408;23;20445;-91
2021/09/12 11:03:06;;;;;;;11.32;10.02;;;20.20;99.90;;;;;;4902914;29;20439;-93
2021/09/12 11:05:40;;;;;;;13.85;9.50;;;19.90;99.90;;;;;;4918463;23;20424;-94
2021/09/12 11:08:10;;;;;;;12.52;9.90;;;19.70;99.90;;;;;;4939485;29;20551;-95
2021/09/12 11:10:39;;;;;;;10.80;9.18;;;19.50;99.90;;;;;;4907477;29;20459;-96
2021/09/12 11:13:07;;;;;;;11.63;9.75;;;19.40;99.90;;;;;;4924268;29;20439;-96
2021/09/12 11:15:39;;;;;;;12.00;9.63;;;19.50;99.90;;;;;;4946900;28;20419;-93
2021/09/12 11:18:11;;;;;;;14.20;9.20;;;19.90;99.90;;;;;;4964231;23;20475;-95
2021/09/12 11:27:14;;;;;;;10.37;8.90;;;21.50;99.90;;;;;;5162436;23;20431;-88
2021/09/12 11:29:41;;;;;;;13.38;8.90;;;22.00;99.90;;;;;;4921613;29;20431;-90
2021/09/12 11:32:15;;;;;;;9.88;8.40;;;22.40;99.90;;;;;;4921314;29;20424;-95
2021/09/12 11:34:42;;;;;;;11.32;8.40;;;22.60;99.90;;;;;;4923762;29;20453;-91
2021/09/12 11:37:11;;;;;;;13.43;9.20;;;22.30;99.90;;;;;;4923084;29;20432;-92
2021/09/12 11:39:45;;;;;;;9.88;8.55;;;21.80;99.90;;;;;;4922282;29;20477;-93
2021/09/12 11:42:17;;;;;;;9.65;8.27;;;21.40;99.90;;;;;;4921409;29;20482;-92
2021/09/12 11:44:46;;;;;;;9.25;7.70;;;21.20;99.90;;;;;;4921520;29;20449;-94
2021/09/12 11:47:16;;;;;;;11.00;8.00;;;21.20;99.90;;;;;;4920750;29;20428;-92
2021/09/12 11:49:45;;;;;;;10.03;7.80;;;21.20;99.90;;;;;;4922332;29;20483;-91
2021/09/12 11:52:14;;;;;;;8.93;6.78;;;21.30;99.90;;;;;;4923356;29;20435;-91
2021/09/12 11:54:41;;;;;;;8.17;7.30;;;21.60;99.90;;;;;;4920710;29;20459;-91
2021/09/12 11:57:11;;;;;;;7.25;6.15;;;21.90;99.90;;;;;;4920576;29;20490;-87
2021/09/12 11:59:44;;;;;;;8.50;5.87;;;22.20;99.90;;;;;;4919703;29;20510;-87
2021/09/12 12:02:14;;;;;;;8.32;6.18;;;22.80;99.90;;;;;;4936532;29;20518;-87
2021/09/12 12:04:44;;;;;;;10.60;7.43;;;23.10;99.90;;;;;;4920370;29;20526;-93
2021/09/12 12:07:11;;;;;;;9.65;7.45;;;23.00;99.90;;;;;;4919823;29;21014;-93
2021/09/12 12:09:48;;;;;;;9.38;6.95;;;22.70;99.90;;;;;;4920023;29;20439;-94
2021/09/12 12:12:17;;;;;;;8.95;7.20;;;22.80;99.90;;;;;;4920143;29;20502;-95
2021/09/12 12:15:00;;;;;;;10.48;7.93;;;22.70;99.90;;;;;;4925445;29;20438;-95
2021/09/12 12:17:27;;;;;;;9.45;6.93;;;22.70;99.90;;;;;;4920696;29;20431;-92
2021/09/12 12:19:56;;;;;;;9.88;7.63;;;22.90;99.90;;;;;;4920085;29;20447;-89
2021/09/12 12:22:34;;;;;;;11.07;7.65;;;22.80;99.90;;;;;;4916140;29;20431;-90
2021/09/12 12:25:05;;;;;;;9.17;7.23;;;22.70;99.90;;;;;;4916694;29;20562;-89
2021/09/12 12:27:41;;;;;;;9.32;7.38;;;22.80;99.90;;;;;;4917127;29;20994;-90
2021/09/12 12:30:10;;;;;;;8.23;6.40;;;23.00;99.90;;;;;;4923172;29;20503;-94
2021/09/12 12:32:37;;;;;;;8.45;7.15;;;23.00;99.90;;;;;;4942550;29;20439;-96
2021/09/12 12:35:15;;;;;;;10.35;6.75;;;22.80;99.90;;;;;;4925276;29;20757;-96
2021/09/12 12:37:46;;;;;;;6.30;5.70;;;23.40;99.90;;;;;;4919465;29;20428;-90
2021/09/12 12:40:21;;;;;;;5.60;5.00;;;24.00;99.90;;;;;;4919866;29;20835;-90
2021/09/12 12:42:59;;;;;;;6.35;5.28;;;24.30;99.90;;;;;;4920204;29;20423;-95
2021/09/12 12:48:11;;;;;;;6.82;5.60;;;25.00;99.90;;;;;;5390042;23;20431;-94
2021/09/12 12:56:29;;;;;;;8.60;5.65;;;23.70;99.90;;;;;;5626963;23;20393;-93
2021/09/12 13:04:59;;;;;;;7.95;6.47;;;23.40;99.90;;;;;;4898674;29;20470;-96
2021/09/12 13:07:26;;;;;;;7.07;6.37;;;23.80;99.90;;;;;;4884920;29;20779;-91
2021/09/12 13:09:56;;;;;;;7.82;6.30;;;23.70;99.90;;;;;;4902280;29;20855;-93
2021/09/12 13:16:24;;;;;;;7.53;6.00;;;23.40;99.90;;;;;;5358677;23;20446;-96
2021/09/12 13:19:31;;;;;;;6.50;5.70;;;24.60;99.90;;;;;;4935105;29;20442;-96
2021/09/12 13:24:46;;;;;;;6.93;4.90;;;26.40;99.90;;;;;;6044740;23;20396;31
2021/09/12 13:31:32;;;;;;;7.43;5.57;;;27.00;98.80;;;;;;5461634;23;20408;-96
2021/09/12 13:44:57;;;;;;;7.38;6.20;;;24.20;99.90;;;;;;5253689;23;20505;-92
2021/09/12 13:47:24;;;;;;;8.63;6.22;;;23.70;99.90;;;;;;4943922;29;20433;-94
2021/09/12 13:49:53;;;;;;;7.35;6.57;;;23.30;99.90;;;;;;4943844;29;20429;-95
2021/09/12 13:52:42;;;;;;;8.63;6.43;;;23.10;99.90;;;;;;5015768;23;20444;-96
2021/09/12 13:55:09;;;;;;;8.32;6.78;;;22.90;99.90;;;;;;4941153;29;20442;-91
2021/09/12 13:57:36;;;;;;;12.50;7.00;;;22.70;99.90;;;;;;4941201;29;20429;-89
2021/09/12 14:00:06;;;;;;;7.60;6.20;;;22.70;99.90;;;;;;4940829;29;20453;-91
2021/09/12 14:02:33;;;;;;;7.32;5.60;;;22.70;99.90;;;;;;4941330;29;20932;-91
2021/09/12 14:05:00;;;;;;;8.18;5.90;;;22.80;99.90;;;;;;4942220;29;20437;-92
2021/09/12 14:07:32;;;;;;;7.30;5.65;;;22.80;99.90;;;;;;4927581;29;20831;-96